createdAt,value
2018-03-30T00:04:15.324Z,23.67
2018-03-30T00:06:42.870Z,24.63
2018-03-30T00:09:10.382Z,24.17
2018-03-30T00:11:42.785Z,24.50
2018-03-30T00:14:11.021Z,24.57
2018-03-30T00:16:39.296Z,22.90
2018-03-30T00:19:06.822Z,24.50
2018-03-30T00:21:34.330Z,23.97
2018-03-30T00:24:02.636Z,25.13
2018-03-30T00:26:30.864Z,26.07
2018-03-30T00:28:58.425Z,25.70
2018-03-30T00:31:26.032Z,26.40
2018-03-30T00:33:53.642Z,25.53
2018-03-30T00:36:25.270Z,26.80
2018-03-30T00:38:52.794Z,27.33
2018-03-30T00:41:20.727Z,26.97
2018-03-30T00:43:48.235Z,26.63
2018-03-30T00:46:15.779Z,26.70
2018-03-30T01:01:48.339Z,24.20
2018-03-30T01:04:20.134Z,26.23
2018-03-30T01:06:48.475Z,25.47
2018-03-30T01:09:16.767Z,27.70
2018-03-30T01:11:44.298Z,26.67
2018-03-30T01:14:12.587Z,29.10
2018-03-30T01:16:40.873Z,28.53
2018-03-30T01:19:08.406Z,26.70
2018-03-30T01:21:37.000Z,28.33
2018-03-30T01:24:05.321Z,27.93
2018-03-30T01:26:32.848Z,27.43
2018-03-30T01:29:01.985Z,26.37
2018-03-30T01:31:29.521Z,27.97
2018-03-30T01:33:57.025Z,26.13
2018-03-30T01:36:24.550Z,26.23
2018-03-30T01:38:52.078Z,26.10
2018-03-30T01:41:20.439Z,26.07
2018-03-30T01:43:47.981Z,25.33
2018-03-30T01:46:19.454Z,24.70
2018-03-30T01:48:47.044Z,24.50
2018-03-30T01:51:14.671Z,24.60
2018-03-30T01:53:42.300Z,24.43
2018-03-30T01:56:09.899Z,26.17
2018-03-30T01:58:37.513Z,23.93
2018-03-30T02:01:05.036Z,24.10
2018-03-30T02:03:33.344Z,25.43
2018-03-30T02:06:00.876Z,27.50
2018-03-30T02:08:29.484Z,27.83
2018-03-30T02:10:57.026Z,25.70
2018-03-30T02:13:24.547Z,26.97
2018-03-30T02:15:55.953Z,26.03
2018-03-30T02:18:23.496Z,27.10
2018-03-30T02:20:51.024Z,26.67
2018-03-30T02:23:19.230Z,28.60
2018-03-30T02:25:46.886Z,27.87
2018-03-30T02:28:15.186Z,26.93
2018-03-30T02:30:42.708Z,25.87
2018-03-30T02:33:11.013Z,27.17
2018-03-30T02:35:38.522Z,26.30
2018-03-30T02:38:06.074Z,26.10
2018-03-30T02:40:33.603Z,27.83
2018-03-30T02:43:01.139Z,27.80
2018-03-30T02:45:28.655Z,27.27
2018-03-30T02:47:56.194Z,26.20
2018-03-30T02:50:23.726Z,26.37
2018-03-30T02:52:55.701Z,26.33
2018-03-30T02:55:23.969Z,26.93
2018-03-30T02:57:51.502Z,27.17
2018-03-30T03:00:19.924Z,27.90
2018-03-30T03:02:47.561Z,26.13
2018-03-30T03:05:19.238Z,26.67
2018-03-30T03:07:47.834Z,25.40
2018-03-30T03:10:15.375Z,27.40
2018-03-30T03:12:42.906Z,25.67
2018-03-30T03:15:11.200Z,27.20
2018-03-30T03:17:38.740Z,27.57
2018-03-30T03:20:07.874Z,26.43
2018-03-30T03:22:35.408Z,26.73
2018-03-30T03:25:03.722Z,25.97
2018-03-30T03:27:31.312Z,27.20
2018-03-30T03:29:58.837Z,23.63
2018-03-30T03:32:26.449Z,26.13
2018-03-30T03:34:54.006Z,26.00
2018-03-30T03:37:22.335Z,24.77
2018-03-30T03:39:54.275Z,24.67
2018-03-30T03:42:21.807Z,25.67
2018-03-30T03:44:49.333Z,25.43
2018-03-30T03:47:17.185Z,24.60
2018-03-30T03:49:44.723Z,25.10
2018-03-30T03:52:12.248Z,26.47
2018-03-30T03:54:39.791Z,26.03
2018-03-30T03:57:11.278Z,25.63
2018-03-30T03:59:39.583Z,23.57
2018-03-30T04:02:07.492Z,26.10
2018-03-30T04:04:35.004Z,25.73
2018-03-30T04:07:02.535Z,23.83
2018-03-30T04:09:30.978Z,22.63
2018-03-30T04:11:58.571Z,22.43
2018-03-30T04:14:26.865Z,21.67
2018-03-30T04:16:55.155Z,22.90
2018-03-30T04:19:22.989Z,24.63
2018-03-30T04:21:50.510Z,23.33
2018-03-30T04:24:18.053Z,22.40
2018-03-30T04:26:45.595Z,23.43
2018-03-30T04:29:13.132Z,24.43
2018-03-30T04:31:40.663Z,23.83
2018-03-30T04:34:08.209Z,24.83
2018-03-30T04:36:35.746Z,23.33
2018-03-30T04:39:07.279Z,25.07
2018-03-30T04:41:36.376Z,23.63
2018-03-30T04:44:05.096Z,24.03
2018-03-30T04:46:32.634Z,22.50
2018-03-30T04:49:00.226Z,24.30
2018-03-30T04:51:27.882Z,24.20
2018-03-30T04:53:55.539Z,23.00
2018-03-30T04:56:23.095Z,23.37
2018-03-30T04:58:50.656Z,25.07
2018-03-30T05:01:18.190Z,23.63
2018-03-30T05:03:46.553Z,23.37
2018-03-30T05:06:14.841Z,24.47
2018-03-30T05:08:43.158Z,22.93
2018-03-30T05:11:10.693Z,23.07
2018-03-30T05:13:38.788Z,23.43
2018-03-30T05:16:06.933Z,22.13
2018-03-30T05:18:34.448Z,22.60
2018-03-30T05:21:01.983Z,21.77
2018-03-30T05:23:33.563Z,21.87
2018-03-30T05:26:01.117Z,22.00
2018-03-30T05:28:30.057Z,20.13
2018-03-30T05:30:57.580Z,22.30
2018-03-30T05:33:25.120Z,20.93
2018-03-30T05:35:52.648Z,21.93
2018-03-30T05:38:20.184Z,19.50
2018-03-30T05:40:48.451Z,20.30
2018-03-30T05:43:16.750Z,20.53
2018-03-30T05:45:44.539Z,20.50
2018-03-30T05:48:12.080Z,21.07
2018-03-30T05:50:39.596Z,21.63
2018-03-30T05:53:11.165Z,22.80
2018-03-30T05:55:39.467Z,22.73
2018-03-30T05:58:06.996Z,22.67
2018-03-30T06:00:34.528Z,22.23
2018-03-30T06:03:02.049Z,21.90
2018-03-30T06:05:30.314Z,22.73
2018-03-30T06:07:59.246Z,21.33
2018-03-30T06:10:26.788Z,22.63
2018-03-30T06:12:54.298Z,22.93
2018-03-30T06:15:21.817Z,20.47
2018-03-30T06:17:49.350Z,23.17
2018-03-30T06:20:16.950Z,20.80
2018-03-30T06:22:44.479Z,21.63
2018-03-30T06:25:11.997Z,21.13
2018-03-30T06:27:39.856Z,19.97
2018-03-30T06:30:07.803Z,18.93
2018-03-30T06:32:35.345Z,20.07
2018-03-30T06:35:02.866Z,18.70
2018-03-30T06:37:35.051Z,19.03
2018-03-30T06:40:02.575Z,18.70
2018-03-30T06:42:30.091Z,19.93
2018-03-30T06:44:57.642Z,18.47
2018-03-30T06:47:25.516Z,19.60
2018-03-30T06:49:53.793Z,19.73
2018-03-30T06:52:22.161Z,19.37
2018-03-30T06:54:49.851Z,18.07
2018-03-30T06:57:24.406Z,18.53
2018-03-30T06:59:51.958Z,18.33
2018-03-30T07:02:19.527Z,18.53
2018-03-30T07:04:47.055Z,17.70
2018-03-30T07:07:14.812Z,18.80
2018-03-30T07:09:42.367Z,17.77
2018-03-30T07:12:10.791Z,17.63
2018-03-30T07:14:38.373Z,18.53
2018-03-30T07:17:06.689Z,18.50
2018-03-30T07:19:34.210Z,18.53
2018-03-30T07:22:03.473Z,19.33
2018-03-30T07:24:31.009Z,19.47
2018-03-30T07:26:58.532Z,17.93
2018-03-30T07:29:26.840Z,18.70
2018-03-30T07:31:54.401Z,17.77
2018-03-30T07:34:22.940Z,18.20
2018-03-30T07:36:51.237Z,18.57
2018-03-30T07:39:23.519Z,16.00
2018-03-30T07:41:51.070Z,17.23
2018-03-30T07:44:22.453Z,18.23
2018-03-30T07:46:54.783Z,17.70
2018-03-30T07:49:23.111Z,17.60
2018-03-30T07:51:50.658Z,17.93
2018-03-30T07:54:18.991Z,17.93
2018-03-30T07:56:47.278Z,17.53
2018-03-30T07:59:19.484Z,17.90
2018-03-30T08:01:47.071Z,18.83
2018-03-30T08:04:14.648Z,19.20
2018-03-30T08:06:42.269Z,18.00
2018-03-30T08:09:10.685Z,18.47
2018-03-30T08:11:38.329Z,17.20
2018-03-30T08:14:05.894Z,18.90
2018-03-30T08:16:33.526Z,18.23
2018-03-30T08:19:01.432Z,18.13
2018-03-30T08:21:28.983Z,17.80
2018-03-30T08:23:56.509Z,18.23
2018-03-30T08:26:24.044Z,17.33
2018-03-30T08:28:52.548Z,17.73
2018-03-30T08:31:24.102Z,17.27
2018-03-30T08:33:51.641Z,17.63
2018-03-30T08:36:19.236Z,16.50
2018-03-30T08:38:46.939Z,15.13
2018-03-30T08:41:14.761Z,15.63
2018-03-30T08:43:42.313Z,15.80
2018-03-30T08:46:09.851Z,15.53
2018-03-30T08:48:38.115Z,15.80
2018-03-30T08:51:06.430Z,15.97
2018-03-30T09:06:39.128Z,12.77
2018-03-30T09:09:06.728Z,11.98
2018-03-30T09:11:36.266Z,13.13
2018-03-30T09:14:04.490Z,12.30
2018-03-30T09:16:32.024Z,11.98
2018-03-30T09:18:59.580Z,12.60
2018-03-30T09:21:27.898Z,12.18
2018-03-30T09:23:56.189Z,12.88
2018-03-30T09:26:24.496Z,12.30
2018-03-30T09:28:52.035Z,12.35
2018-03-30T09:31:19.554Z,11.90
2018-03-30T09:33:47.621Z,11.60
2018-03-30T09:36:15.596Z,12.23
2018-03-30T09:38:43.140Z,12.50
2018-03-30T09:41:10.647Z,12.43
2018-03-30T09:43:38.939Z,12.35
2018-03-30T09:46:07.155Z,12.35
2018-03-30T09:48:34.686Z,12.45
2018-03-30T09:51:02.461Z,12.90
2018-03-30T09:53:29.988Z,12.50
2018-03-30T09:55:57.541Z,12.90
2018-03-30T09:58:25.860Z,12.50
2018-03-30T10:00:53.634Z,13.05
2018-03-30T10:03:21.315Z,12.18
2018-03-30T10:05:48.869Z,12.95
2018-03-30T10:08:16.430Z,13.25
2018-03-30T10:10:43.983Z,13.65
2018-03-30T10:13:11.885Z,13.82
2018-03-30T10:15:40.209Z,13.95
2018-03-30T10:18:07.793Z,14.95
2018-03-30T10:20:35.316Z,14.48
2018-03-30T10:23:03.002Z,14.82
2018-03-30T10:25:34.410Z,13.90
2018-03-30T10:28:02.738Z,14.32
2018-03-30T10:30:30.290Z,15.90
2018-03-30T10:32:57.824Z,16.35
2018-03-30T10:35:25.365Z,16.35
2018-03-30T10:37:52.924Z,15.75
2018-03-30T10:40:25.384Z,14.48
2018-03-30T10:42:53.680Z,15.10
2018-03-30T10:45:21.995Z,15.48
2018-03-30T10:47:51.086Z,15.30
2018-03-30T10:50:18.629Z,14.75
2018-03-30T10:52:46.140Z,14.65
2018-03-30T10:55:13.744Z,15.85
2018-03-30T10:57:43.112Z,14.10
2018-03-30T11:00:10.690Z,14.65
2018-03-30T11:02:39.025Z,14.48
2018-03-30T11:05:06.567Z,12.43
2018-03-30T11:07:34.114Z,11.73
2018-03-30T11:10:02.363Z,11.93
2018-03-30T11:12:30.682Z,12.02
2018-03-30T11:14:59.040Z,11.48
2018-03-30T11:17:31.368Z,11.43
2018-03-30T11:20:02.873Z,12.05
2018-03-30T11:22:30.479Z,11.63
2018-03-30T11:24:58.001Z,11.63
2018-03-30T11:27:25.922Z,12.63
2018-03-30T11:29:54.215Z,11.90
2018-03-30T11:32:22.502Z,12.23
2018-03-30T11:34:50.046Z,11.38
2018-03-30T11:37:23.126Z,10.45
2018-03-30T11:39:55.678Z,9.23
2018-03-30T11:42:24.055Z,9.75
2018-03-30T11:44:51.598Z,9.88
2018-03-30T11:47:23.952Z,9.85
2018-03-30T11:49:51.494Z,11.60
2018-03-30T11:52:19.045Z,9.98
2018-03-30T11:54:47.348Z,9.70
2018-03-30T11:57:14.886Z,9.05
2018-03-30T11:59:42.406Z,9.10
2018-03-30T12:02:10.240Z,8.55
2018-03-30T12:04:37.756Z,9.57
2018-03-30T12:07:06.761Z,8.60
2018-03-30T12:09:39.179Z,9.27
2018-03-30T12:12:06.995Z,7.70
2018-03-30T12:14:35.303Z,7.97
2018-03-30T12:17:04.158Z,8.07
2018-03-30T12:19:32.468Z,8.80
2018-03-30T12:21:59.992Z,7.65
2018-03-30T12:24:28.072Z,8.13
2018-03-30T12:26:56.399Z,7.43
2018-03-30T12:29:24.048Z,7.20
2018-03-30T12:31:51.550Z,7.65
2018-03-30T12:34:19.133Z,7.57
2018-03-30T12:36:47.426Z,7.60
2018-03-30T12:39:14.984Z,7.55
2018-03-30T12:41:43.344Z,7.97
2018-03-30T12:44:11.664Z,7.03
2018-03-30T12:46:39.198Z,8.30
2018-03-30T12:49:06.714Z,7.55
2018-03-30T12:51:34.255Z,8.77
2018-03-30T12:54:01.814Z,7.65
2018-03-30T12:56:29.374Z,8.07
2018-03-30T12:58:57.157Z,6.87
2018-03-30T13:01:24.759Z,7.47
2018-03-30T13:03:52.318Z,7.40
2018-03-30T13:06:19.860Z,7.90
2018-03-30T13:08:48.886Z,7.55
2018-03-30T13:11:16.410Z,7.20
2018-03-30T13:13:43.943Z,7.53
2018-03-30T13:16:11.457Z,8.23
2018-03-30T13:18:39.014Z,9.00
2018-03-30T13:21:06.545Z,8.10
2018-03-30T13:23:34.063Z,8.95
2018-03-30T13:26:01.672Z,8.98
2018-03-30T13:28:33.661Z,9.48
2018-03-30T13:31:01.194Z,10.20
2018-03-30T13:33:29.493Z,10.43
2018-03-30T13:35:57.499Z,9.93
2018-03-30T13:38:26.124Z,10.15
2018-03-30T13:40:53.684Z,10.93
2018-03-30T13:43:21.217Z,10.30
2018-03-30T13:45:48.758Z,10.20
2018-03-30T13:48:16.314Z,10.07
2018-03-30T13:51:03.992Z,10.63
2018-03-30T13:53:38.778Z,10.80
2018-03-30T13:56:07.232Z,10.48
2018-03-30T14:11:35.655Z,9.50
2018-03-30T14:14:07.201Z,9.75
2018-03-30T14:16:36.106Z,10.38
2018-03-30T14:19:03.950Z,10.15
2018-03-30T14:21:32.218Z,9.98
2018-03-30T14:24:01.599Z,9.55
2018-03-30T14:26:31.894Z,9.10
2018-03-30T14:29:19.276Z,9.65
2018-03-30T14:32:03.476Z,9.70
2018-03-30T14:34:35.234Z,9.73
2018-03-30T14:37:10.279Z,10.40
2018-03-30T14:39:48.376Z,10.07
2018-03-30T14:42:19.596Z,9.87
2018-03-30T14:44:48.070Z,10.48
2018-03-30T14:47:17.406Z,10.20
2018-03-30T14:49:48.960Z,10.85
2018-03-30T14:52:24.695Z,10.57
2018-03-30T14:54:52.983Z,10.40
2018-03-30T14:57:28.775Z,10.70
2018-03-30T15:00:04.068Z,10.83
2018-03-30T15:02:47.341Z,11.00
2018-03-30T15:05:25.599Z,10.63
2018-03-30T15:11:00.290Z,11.33
2018-03-30T15:13:43.548Z,11.00
2018-03-30T15:16:14.650Z,11.30
2018-03-30T15:18:48.503Z,10.23
2018-03-30T15:21:34.564Z,11.03
2018-03-30T15:24:06.038Z,10.07
2018-03-30T15:26:33.592Z,10.70
2018-03-30T15:29:07.908Z,10.77
2018-03-30T15:31:55.610Z,10.97
2018-03-30T15:34:26.116Z,10.47
2018-03-30T15:37:15.319Z,10.87
2018-03-30T15:42:40.159Z,11.80
2018-03-30T15:45:13.066Z,12.67
2018-03-30T15:47:44.198Z,12.43
2018-03-30T15:50:11.800Z,11.83
2018-03-30T15:52:42.272Z,12.63
2018-03-30T15:55:09.891Z,11.80
2018-03-30T15:57:37.446Z,11.87
2018-03-30T16:00:12.049Z,12.70
2018-03-30T16:02:40.531Z,12.13
2018-03-30T16:05:08.172Z,12.53
2018-03-30T16:07:35.722Z,12.77
2018-03-30T16:10:21.174Z,12.10
2018-03-30T16:12:49.465Z,12.80
2018-03-30T16:15:17.053Z,11.93
2018-03-30T16:17:44.585Z,12.03
2018-03-30T16:20:11.645Z,12.20
2018-03-30T16:22:39.945Z,12.47
2018-03-30T16:25:07.792Z,12.17
2018-03-30T16:27:35.031Z,12.00
2018-03-30T16:30:02.069Z,13.20
2018-03-30T16:32:29.882Z,12.50
2018-03-30T16:34:57.864Z,12.50
2018-03-30T16:37:25.411Z,12.17
2018-03-30T16:39:52.454Z,12.23
2018-03-30T16:42:19.562Z,12.57
2018-03-30T16:44:47.394Z,12.60
2018-03-30T16:47:14.457Z,12.93
2018-03-30T16:49:41.521Z,12.93
2018-03-30T16:52:08.570Z,12.40
2018-03-30T16:54:36.657Z,13.30
2018-03-30T16:57:03.697Z,13.20
2018-03-30T16:59:30.742Z,13.43
2018-03-30T17:01:57.819Z,12.20
2018-03-30T17:04:24.903Z,13.13
2018-03-30T17:06:52.683Z,12.90
2018-03-30T17:09:20.817Z,12.27
2018-03-30T17:11:47.867Z,13.27
2018-03-30T17:14:14.912Z,12.33
2018-03-30T17:16:43.341Z,12.33
2018-03-30T17:19:11.179Z,12.23
2018-03-30T17:21:38.220Z,13.30
2018-03-30T17:24:05.312Z,13.67
2018-03-30T17:26:35.466Z,12.47
2018-03-30T17:29:02.527Z,12.90
2018-03-30T17:31:29.588Z,14.03
2018-03-30T17:33:56.638Z,12.43
2018-03-30T17:36:24.326Z,13.20
2018-03-30T17:38:51.403Z,12.70
2018-03-30T17:41:18.441Z,12.70
2018-03-30T17:43:46.548Z,13.10
2018-03-30T17:46:13.627Z,13.87
2018-03-30T17:48:44.757Z,15.33
2018-03-30T17:51:11.807Z,13.37
2018-03-30T17:53:39.208Z,14.00
2018-03-30T17:56:07.485Z,13.63
2018-03-30T17:58:40.218Z,15.40
2018-03-30T18:01:08.377Z,14.97
2018-03-30T18:03:36.026Z,12.70
2018-03-30T18:06:03.516Z,13.77
2018-03-30T18:08:34.454Z,14.03
2018-03-30T18:11:01.500Z,13.07
2018-03-30T18:13:28.556Z,15.93
2018-03-30T18:15:55.608Z,13.03
2018-03-30T18:18:23.447Z,12.60
2018-03-30T18:20:51.069Z,12.93
2018-03-30T18:23:18.883Z,12.67
2018-03-30T18:25:45.930Z,13.13
2018-03-30T18:28:12.967Z,13.20
2018-03-30T18:30:40.026Z,13.10
2018-03-30T18:33:07.070Z,12.43
2018-03-30T18:35:34.153Z,12.97
2018-03-30T18:38:01.204Z,12.80
2018-03-30T18:40:29.002Z,13.60
2018-03-30T18:42:56.039Z,12.93
2018-03-30T18:45:31.664Z,12.90
2018-03-30T18:48:00.248Z,12.80
2018-03-30T18:50:27.313Z,13.13
2018-03-30T18:52:55.841Z,12.63
2018-03-30T18:55:22.883Z,12.33
2018-03-30T18:57:49.941Z,12.57
2018-03-30T19:00:16.969Z,12.87
2018-03-30T19:02:44.023Z,14.00
2018-03-30T19:05:11.102Z,14.03
2018-03-30T19:07:38.177Z,13.10
2018-03-30T19:10:05.985Z,14.10
2018-03-30T19:12:33.065Z,14.13
2018-03-30T19:15:00.122Z,14.93
2018-03-30T19:17:27.185Z,13.73
2018-03-30T19:19:54.263Z,14.23
2018-03-30T19:22:21.296Z,14.17
2018-03-30T19:24:49.097Z,14.87
2018-03-30T19:27:16.172Z,15.37
2018-03-30T19:29:43.216Z,13.97
2018-03-30T19:32:10.273Z,14.87
2018-03-30T19:34:38.094Z,15.57
2018-03-30T19:37:05.259Z,15.40
2018-03-30T19:39:32.286Z,14.57
2018-03-30T19:42:00.708Z,16.07
2018-03-30T19:44:27.792Z,16.73
2018-03-30T19:46:55.149Z,16.40
2018-03-30T19:49:22.970Z,14.77
2018-03-30T19:51:50.016Z,15.40
2018-03-30T19:54:17.598Z,15.47
2018-03-30T19:56:45.153Z,15.03
2018-03-30T19:59:12.190Z,16.70
2018-03-30T20:01:39.226Z,15.77
2018-03-30T20:04:06.276Z,16.23
2018-03-30T20:06:33.337Z,16.07
2018-03-30T20:09:00.363Z,16.00
2018-03-30T20:11:27.410Z,16.30
2018-03-30T20:13:54.441Z,16.10
2018-03-30T20:16:21.497Z,16.83
2018-03-30T20:18:48.536Z,16.37
2018-03-30T20:21:15.585Z,15.70
2018-03-30T20:23:42.629Z,16.13
2018-03-30T20:26:10.413Z,16.27
2018-03-30T20:28:37.459Z,16.40
2018-03-30T20:31:04.490Z,15.30
2018-03-30T20:33:32.298Z,16.87
2018-03-30T20:35:59.341Z,16.30
2018-03-30T20:38:26.357Z,16.07
2018-03-30T20:40:53.419Z,15.23
2018-03-30T20:43:21.045Z,15.87
2018-03-30T20:45:48.929Z,15.30
2018-03-30T20:48:16.785Z,15.10
2018-03-30T20:50:44.580Z,15.07
2018-03-30T20:53:11.623Z,15.50
2018-03-30T20:55:38.643Z,16.13
2018-03-30T20:58:06.489Z,15.80
2018-03-30T21:00:33.545Z,16.20
2018-03-30T21:03:00.894Z,15.17
2018-03-30T21:05:27.936Z,15.23
2018-03-30T21:07:55.007Z,14.80
2018-03-30T21:10:22.823Z,13.63
2018-03-30T21:12:49.856Z,15.13
2018-03-30T21:15:16.890Z,14.03
2018-03-30T21:17:43.925Z,14.77
2018-03-30T21:20:11.727Z,15.27
2018-03-30T21:22:42.718Z,13.30
2018-03-30T21:25:09.731Z,13.87
2018-03-30T21:27:37.625Z,13.87
2018-03-30T21:30:05.072Z,14.40
2018-03-30T21:32:32.155Z,13.67
2018-03-30T21:34:59.988Z,13.83
2018-03-30T21:37:27.045Z,13.20
2018-03-30T21:39:55.281Z,13.43
2018-03-30T21:42:22.378Z,13.27
2018-03-30T21:44:49.422Z,13.33
2018-03-30T21:47:17.443Z,13.60
2018-03-30T21:49:44.516Z,13.73
2018-03-30T21:52:11.574Z,13.50
2018-03-30T21:54:38.622Z,13.37
2018-03-30T21:57:05.682Z,13.80
2018-03-30T21:59:32.730Z,14.37
2018-03-30T22:01:59.761Z,13.03
2018-03-30T22:04:27.598Z,13.50
2018-03-30T22:06:54.667Z,13.63
2018-03-30T22:09:21.730Z,13.30
2018-03-30T22:11:48.756Z,13.10
2018-03-30T22:14:16.032Z,12.97
2018-03-30T22:16:43.081Z,13.03
2018-03-30T22:19:10.122Z,13.37
2018-03-30T22:21:37.298Z,13.47
2018-03-30T22:24:04.912Z,13.60
2018-03-30T22:26:31.949Z,12.63
2018-03-30T22:28:58.990Z,13.10
2018-03-30T22:31:26.033Z,13.00
2018-03-30T22:33:53.065Z,13.20
2018-03-30T22:36:20.849Z,13.37
2018-03-30T22:38:47.907Z,12.67
2018-03-30T22:41:15.080Z,12.83
2018-03-30T22:43:42.133Z,13.40
2018-03-30T22:46:09.166Z,13.07
2018-03-30T22:48:36.208Z,12.67
2018-03-30T22:51:03.501Z,12.33
2018-03-30T22:53:30.563Z,13.53
2018-03-30T22:55:57.622Z,12.63
2018-03-30T22:58:25.432Z,13.50
2018-03-30T23:00:52.508Z,12.87
2018-03-30T23:03:19.560Z,12.83
2018-03-30T23:05:46.593Z,13.33
2018-03-30T23:08:13.627Z,13.07
2018-03-30T23:10:40.672Z,13.63
2018-03-30T23:13:07.716Z,13.27
2018-03-30T23:15:34.760Z,12.80
2018-03-30T23:18:01.780Z,12.77
2018-03-30T23:20:29.609Z,12.53
2018-03-30T23:22:56.634Z,12.63
2018-03-30T23:25:23.669Z,12.67
2018-03-30T23:27:50.732Z,13.80
2018-03-30T23:30:17.781Z,13.07
2018-03-30T23:32:45.669Z,13.23
2018-03-30T23:35:12.701Z,13.00
2018-03-30T23:37:40.900Z,13.23
2018-03-30T23:40:07.930Z,13.00
2018-03-30T23:42:34.972Z,13.20
2018-03-30T23:45:02.013Z,12.53
2018-03-30T23:47:29.038Z,12.90
2018-03-30T23:49:56.413Z,13.37
2018-03-30T23:52:23.461Z,13.60
